sensor_id;sensor_type;location;lat;lon;timestamp;temperature;humidity
10911;DHT22;5508;49.150;11.030;2022-09-11T00:02:40;12.80;99.90
10911;DHT22;5508;49.150;11.030;2022-09-11T00:05:41;12.80;99.90
10911;DHT22;5508;49.150;11.030;2022-09-11T00:08:42;12.80;99.90
10911;DHT22;5508;49.150;11.030;2022-09-11T00:11:43;12.90;99.90
10911;DHT22;5508;49.150;11.030;2022-09-11T00:14:44;12.90;99.90
10911;DHT22;5508;49.150;11.030;2022-09-11T00:17:44;12.80;99.90
10911;DHT22;5508;49.150;11.030;2022-09-11T00:20:53;12.90;99.90
10911;DHT22;5508;49.150;11.030;2022-09-11T00:23:55;12.80;99.90
10911;DHT22;5508;49.150;11.030;2022-09-11T00:26:55;12.90;99.90
10911;DHT22;5508;49.150;11.030;2022-09-11T00:29:56;12.90;99.90
10911;DHT22;5508;49.150;11.030;2022-09-11T00:32:57;12.90;99.90
10911;DHT22;5508;49.150;11.030;2022-09-11T00:36:04;12.90;99.90
10911;DHT22;5508;49.150;11.030;2022-09-11T00:39:05;12.80;99.90
10911;DHT22;5508;49.150;11.030;2022-09-11T00:42:08;12.80;99.90
10911;DHT22;5508;49.150;11.030;2022-09-11T00:45:23;12.80;99.90
10911;DHT22;5508;49.150;11.030;2022-09-11T00:48:26;12.80;99.90
10911;DHT22;5508;49.150;11.030;2022-09-11T00:51:31;12.80;99.90
10911;DHT22;5508;49.150;11.030;2022-09-11T00:54:38;12.80;99.90
10911;DHT22;5508;49.150;11.030;2022-09-11T00:57:51;12.80;99.90
10911;DHT22;5508;49.150;11.030;2022-09-11T01:00:55;12.80;99.90
10911;DHT22;5508;49.150;11.030;2022-09-11T01:03:55;12.80;99.90
10911;DHT22;5508;49.150;11.030;2022-09-11T01:06:57;12.80;99.90
10911;DHT22;5508;49.150;11.030;2022-09-11T01:09:59;12.90;99.90
10911;DHT22;5508;49.150;11.030;2022-09-11T01:29:16;12.90;99.90
10911;DHT22;5508;49.150;11.030;2022-09-11T01:32:27;12.80;99.90
10911;DHT22;5508;49.150;11.030;2022-09-11T01:36:19;12.80;99.90
10911;DHT22;5508;49.150;11.030;2022-09-11T01:39:12;12.80;99.90
10911;DHT22;5508;49.150;11.030;2022-09-11T01:42:17;12.80;99.90
10911;DHT22;5508;49.150;11.030;2022-09-11T01:45:20;12.80;99.90
10911;DHT22;5508;49.150;11.030;2022-09-11T01:48:25;12.80;99.90
10911;DHT22;5508;49.150;11.030;2022-09-11T01:51:31;12.80;99.90
10911;DHT22;5508;49.150;11.030;2022-09-11T01:54:38;12.80;99.90
10911;DHT22;5508;49.150;11.030;2022-09-11T01:57:55;12.90;99.90
10911;DHT22;5508;49.150;11.030;2022-09-11T02:01:06;12.80;99.90
10911;DHT22;5508;49.150;11.030;2022-09-11T02:04:15;12.80;99.90
10911;DHT22;5508;49.150;11.030;2022-09-11T02:07:20;12.80;99.90
10911;DHT22;5508;49.150;11.030;2022-09-11T02:10:38;12.80;99.90
10911;DHT22;5508;49.150;11.030;2022-09-11T02:13:56;12.90;99.90
10911;DHT22;5508;49.150;11.030;2022-09-11T02:20:25;12.80;99.90
10911;DHT22;5508;49.150;11.030;2022-09-11T02:23:25;12.80;99.90
10911;DHT22;5508;49.150;11.030;2022-09-11T02:26:29;12.90;99.90
10911;DHT22;5508;49.150;11.030;2022-09-11T02:29:31;12.80;99.90
10911;DHT22;5508;49.150;11.030;2022-09-11T02:32:35;12.80;99.90
10911;DHT22;5508;49.150;11.030;2022-09-11T02:35:42;12.80;99.90
10911;DHT22;5508;49.150;11.030;2022-09-11T02:55:40;12.70;99.90
10911;DHT22;5508;49.150;11.030;2022-09-11T02:58:53;12.70;99.90
10911;DHT22;5508;49.150;11.030;2022-09-11T03:01:56;12.70;99.90
10911;DHT22;5508;49.150;11.030;2022-09-11T03:04:59;12.60;99.90
10911;DHT22;5508;49.150;11.030;2022-09-11T03:08:00;12.60;99.90
10911;DHT22;5508;49.150;11.030;2022-09-11T03:11:03;12.60;99.90
10911;DHT22;5508;49.150;11.030;2022-09-11T03:14:04;12.50;99.90
10911;DHT22;5508;49.150;11.030;2022-09-11T03:17:04;12.50;99.90
10911;DHT22;5508;49.150;11.030;2022-09-11T03:20:05;12.50;99.90
10911;DHT22;5508;49.150;11.030;2022-09-11T03:26:08;12.60;99.90
10911;DHT22;5508;49.150;11.030;2022-09-11T03:29:09;12.60;99.90
10911;DHT22;5508;49.150;11.030;2022-09-11T03:32:10;12.60;99.90
10911;DHT22;5508;49.150;11.030;2022-09-11T03:35:10;12.60;99.90
10911;DHT22;5508;49.150;11.030;2022-09-11T03:38:11;12.70;99.90
10911;DHT22;5508;49.150;11.030;2022-09-11T03:41:12;12.70;99.90
10911;DHT22;5508;49.150;11.030;2022-09-11T03:44:13;12.70;99.90
10911;DHT22;5508;49.150;11.030;2022-09-11T03:47:13;12.70;99.90
10911;DHT22;5508;49.150;11.030;2022-09-11T03:50:14;12.80;99.90
10911;DHT22;5508;49.150;11.030;2022-09-11T03:53:15;12.80;99.90
10911;DHT22;5508;49.150;11.030;2022-09-11T03:56:15;12.80;99.90
10911;DHT22;5508;49.150;11.030;2022-09-11T03:59:16;12.80;99.90
10911;DHT22;5508;49.150;11.030;2022-09-11T04:02:17;12.80;99.90
10911;DHT22;5508;49.150;11.030;2022-09-11T04:05:18;12.80;99.90
10911;DHT22;5508;49.150;11.030;2022-09-11T04:08:19;12.80;99.90
10911;DHT22;5508;49.150;11.030;2022-09-11T04:11:19;12.90;99.90
10911;DHT22;5508;49.150;11.030;2022-09-11T04:14:20;12.90;99.90
10911;DHT22;5508;49.150;11.030;2022-09-11T04:17:21;12.90;99.90
10911;DHT22;5508;49.150;11.030;2022-09-11T04:20:23;12.90;99.90
10911;DHT22;5508;49.150;11.030;2022-09-11T04:23:24;12.90;99.90
10911;DHT22;5508;49.150;11.030;2022-09-11T04:26:26;12.90;99.90
10911;DHT22;5508;49.150;11.030;2022-09-11T04:29:27;12.90;99.90
10911;DHT22;5508;49.150;11.030;2022-09-11T04:32:28;12.90;99.90
10911;DHT22;5508;49.150;11.030;2022-09-11T04:35:28;12.90;99.90
10911;DHT22;5508;49.150;11.030;2022-09-11T04:38:29;12.90;99.90
10911;DHT22;5508;49.150;11.030;2022-09-11T04:41:29;12.90;99.90
10911;DHT22;5508;49.150;11.030;2022-09-11T04:44:30;12.90;99.90
10911;DHT22;5508;49.150;11.030;2022-09-11T04:47:31;12.90;99.90
10911;DHT22;5508;49.150;11.030;2022-09-11T04:50:32;13.00;99.90
10911;DHT22;5508;49.150;11.030;2022-09-11T04:53:33;12.90;99.90
10911;DHT22;5508;49.150;11.030;2022-09-11T04:56:35;13.00;99.90
10911;DHT22;5508;49.150;11.030;2022-09-11T04:59:39;12.90;99.90
10911;DHT22;5508;49.150;11.030;2022-09-11T05:02:39;12.90;99.90
10911;DHT22;5508;49.150;11.030;2022-09-11T05:05:40;12.90;99.90
10911;DHT22;5508;49.150;11.030;2022-09-11T05:08:44;12.90;99.90
10911;DHT22;5508;49.150;11.030;2022-09-11T05:11:45;12.90;99.90
10911;DHT22;5508;49.150;11.030;2022-09-11T05:14:46;13.00;99.90
10911;DHT22;5508;49.150;11.030;2022-09-11T05:17:46;13.00;99.90
10911;DHT22;5508;49.150;11.030;2022-09-11T05:20:47;12.90;99.90
10911;DHT22;5508;49.150;11.030;2022-09-11T05:23:50;13.00;99.90
10911;DHT22;5508;49.150;11.030;2022-09-11T05:26:51;13.00;99.90
10911;DHT22;5508;49.150;11.030;2022-09-11T05:29:51;13.00;99.90
10911;DHT22;5508;49.150;11.030;2022-09-11T05:32:53;12.90;99.90
10911;DHT22;5508;49.150;11.030;2022-09-11T05:36:01;12.90;99.90
10911;DHT22;5508;49.150;11.030;2022-09-11T05:39:03;12.90;99.90
10911;DHT22;5508;49.150;11.030;2022-09-11T05:42:04;12.90;99.90
10911;DHT22;5508;49.150;11.030;2022-09-11T05:45:05;12.90;99.90
10911;DHT22;5508;49.150;11.030;2022-09-11T05:48:05;12.90;99.90
10911;DHT22;5508;49.150;11.030;2022-09-11T05:51:10;13.00;99.90
10911;DHT22;5508;49.150;11.030;2022-09-11T05:54:12;13.00;99.90
10911;DHT22;5508;49.150;11.030;2022-09-11T05:57:12;13.00;99.90
10911;DHT22;5508;49.150;11.030;2022-09-11T06:00:13;13.00;99.90
10911;DHT22;5508;49.150;11.030;2022-09-11T06:03:15;13.00;99.90
10911;DHT22;5508;49.150;11.030;2022-09-11T06:06:17;13.00;99.90
10911;DHT22;5508;49.150;11.030;2022-09-11T06:09:18;13.00;99.90
10911;DHT22;5508;49.150;11.030;2022-09-11T06:12:18;13.10;99.90
10911;DHT22;5508;49.150;11.030;2022-09-11T06:15:19;13.10;99.90
10911;DHT22;5508;49.150;11.030;2022-09-11T06:18:19;13.10;99.90
10911;DHT22;5508;49.150;11.030;2022-09-11T06:21:22;13.10;99.90
10911;DHT22;5508;49.150;11.030;2022-09-11T06:24:22;13.10;99.90
10911;DHT22;5508;49.150;11.030;2022-09-11T06:27:23;13.10;99.90
10911;DHT22;5508;49.150;11.030;2022-09-11T06:30:24;13.20;99.90
10911;DHT22;5508;49.150;11.030;2022-09-11T06:33:24;13.20;99.90
10911;DHT22;5508;49.150;11.030;2022-09-11T06:36:25;13.20;99.90
10911;DHT22;5508;49.150;11.030;2022-09-11T06:39:26;13.20;99.90
10911;DHT22;5508;49.150;11.030;2022-09-11T06:42:26;13.30;99.90
10911;DHT22;5508;49.150;11.030;2022-09-11T06:45:28;13.30;99.90
10911;DHT22;5508;49.150;11.030;2022-09-11T06:48:29;13.30;99.90
10911;DHT22;5508;49.150;11.030;2022-09-11T06:51:30;13.30;99.90
10911;DHT22;5508;49.150;11.030;2022-09-11T06:54:30;13.20;99.90
10911;DHT22;5508;49.150;11.030;2022-09-11T06:57:31;13.10;99.90
10911;DHT22;5508;49.150;11.030;2022-09-11T07:00:33;13.10;99.90
10911;DHT22;5508;49.150;11.030;2022-09-11T07:03:33;13.20;99.90
10911;DHT22;5508;49.150;11.030;2022-09-11T07:06:34;13.20;99.90
10911;DHT22;5508;49.150;11.030;2022-09-11T07:09:37;13.20;99.90
10911;DHT22;5508;49.150;11.030;2022-09-11T07:12:38;13.20;99.90
10911;DHT22;5508;49.150;11.030;2022-09-11T07:15:38;13.20;99.90
10911;DHT22;5508;49.150;11.030;2022-09-11T07:18:42;13.20;99.90
10911;DHT22;5508;49.150;11.030;2022-09-11T07:21:43;13.30;99.90
10911;DHT22;5508;49.150;11.030;2022-09-11T07:24:44;13.30;99.90
10911;DHT22;5508;49.150;11.030;2022-09-11T07:27:46;13.40;99.90
10911;DHT22;5508;49.150;11.030;2022-09-11T07:30:47;13.40;99.90
10911;DHT22;5508;49.150;11.030;2022-09-11T07:33:49;13.40;99.90
10911;DHT22;5508;49.150;11.030;2022-09-11T07:36:50;13.40;99.90
10911;DHT22;5508;49.150;11.030;2022-09-11T07:39:51;13.30;99.90
10911;DHT22;5508;49.150;11.030;2022-09-11T07:42:52;13.40;99.90
10911;DHT22;5508;49.150;11.030;2022-09-11T07:45:52;13.50;99.90
10911;DHT22;5508;49.150;11.030;2022-09-11T07:48:56;13.60;99.90
10911;DHT22;5508;49.150;11.030;2022-09-11T07:51:57;13.70;99.90
10911;DHT22;5508;49.150;11.030;2022-09-11T07:54:58;13.90;99.90
10911;DHT22;5508;49.150;11.030;2022-09-11T07:58:00;13.90;99.90
10911;DHT22;5508;49.150;11.030;2022-09-11T08:01:02;14.10;99.90
10911;DHT22;5508;49.150;11.030;2022-09-11T08:04:10;14.30;99.90
10911;DHT22;5508;49.150;11.030;2022-09-11T08:07:11;14.30;99.90
10911;DHT22;5508;49.150;11.030;2022-09-11T08:10:11;14.40;99.90
10911;DHT22;5508;49.150;11.030;2022-09-11T08:13:12;14.40;99.90
10911;DHT22;5508;49.150;11.030;2022-09-11T08:16:12;14.50;99.90
10911;DHT22;5508;49.150;11.030;2022-09-11T08:19:19;14.50;99.90
10911;DHT22;5508;49.150;11.030;2022-09-11T08:22:20;14.30;99.90
10911;DHT22;5508;49.150;11.030;2022-09-11T08:25:20;14.30;99.90
10911;DHT22;5508;49.150;11.030;2022-09-11T08:28:21;14.30;99.90
10911;DHT22;5508;49.150;11.030;2022-09-11T08:31:25;14.40;99.90
10911;DHT22;5508;49.150;11.030;2022-09-11T08:34:26;14.40;99.90
10911;DHT22;5508;49.150;11.030;2022-09-11T08:37:26;14.40;99.90
10911;DHT22;5508;49.150;11.030;2022-09-11T08:40:29;14.50;99.90
10911;DHT22;5508;49.150;11.030;2022-09-11T08:43:34;14.50;99.90
10911;DHT22;5508;49.150;11.030;2022-09-11T08:46:41;14.50;99.90
10911;DHT22;5508;49.150;11.030;2022-09-11T08:49:48;14.60;99.90
10911;DHT22;5508;49.150;11.030;2022-09-11T08:52:51;14.60;99.90
10911;DHT22;5508;49.150;11.030;2022-09-11T08:56:00;14.50;99.90
10911;DHT22;5508;49.150;11.030;2022-09-11T08:59:20;14.60;99.90
10911;DHT22;5508;49.150;11.030;2022-09-11T09:06:14;14.80;99.90
10911;DHT22;5508;49.150;11.030;2022-09-11T09:09:41;14.80;99.90
10911;DHT22;5508;49.150;11.030;2022-09-11T09:16:15;15.20;99.90
10911;DHT22;5508;49.150;11.030;2022-09-11T09:19:38;15.40;99.90
10911;DHT22;5508;49.150;11.030;2022-09-11T09:23:00;15.50;99.90
10911;DHT22;5508;49.150;11.030;2022-09-11T09:26:01;15.60;99.90
10911;DHT22;5508;49.150;11.030;2022-09-11T09:29:12;15.60;99.90
10911;DHT22;5508;49.150;11.030;2022-09-11T09:32:19;15.70;99.90
10911;DHT22;5508;49.150;11.030;2022-09-11T09:35:43;15.90;99.90
10911;DHT22;5508;49.150;11.030;2022-09-11T09:38:44;15.80;99.90
10911;DHT22;5508;49.150;11.030;2022-09-11T09:45:17;15.60;99.90
10911;DHT22;5508;49.150;11.030;2022-09-11T09:48:19;15.60;99.90
10911;DHT22;5508;49.150;11.030;2022-09-11T09:51:20;15.70;99.90
10911;DHT22;5508;49.150;11.030;2022-09-11T09:54:27;15.90;99.90
10911;DHT22;5508;49.150;11.030;2022-09-11T09:57:31;16.10;99.90
10911;DHT22;5508;49.150;11.030;2022-09-11T10:00:36;16.30;99.90
10911;DHT22;5508;49.150;11.030;2022-09-11T10:03:37;16.50;99.90
10911;DHT22;5508;49.150;11.030;2022-09-11T10:06:38;16.60;99.90
10911;DHT22;5508;49.150;11.030;2022-09-11T10:09:47;16.80;99.90
10911;DHT22;5508;49.150;11.030;2022-09-11T10:12:48;17.00;99.90
10911;DHT22;5508;49.150;11.030;2022-09-11T10:15:51;16.80;99.90
10911;DHT22;5508;49.150;11.030;2022-09-11T10:18:53;17.00;99.90
10911;DHT22;5508;49.150;11.030;2022-09-11T10:25:26;17.00;99.20
10911;DHT22;5508;49.150;11.030;2022-09-11T10:28:31;17.00;98.30
10911;DHT22;5508;49.150;11.030;2022-09-11T10:31:33;17.00;96.70
10911;DHT22;5508;49.150;11.030;2022-09-11T10:34:37;17.00;97.00
10911;DHT22;5508;49.150;11.030;2022-09-11T10:37:39;17.20;96.00
10911;DHT22;5508;49.150;11.030;2022-09-11T10:40:40;17.50;94.50
10911;DHT22;5508;49.150;11.030;2022-09-11T10:43:59;17.80;97.10
10911;DHT22;5508;49.150;11.030;2022-09-11T10:47:23;18.00;89.20
10911;DHT22;5508;49.150;11.030;2022-09-11T10:50:25;17.80;89.00
10911;DHT22;5508;49.150;11.030;2022-09-11T10:53:26;17.80;92.60
10911;DHT22;5508;49.150;11.030;2022-09-11T10:56:27;17.90;94.60
10911;DHT22;5508;49.150;11.030;2022-09-11T11:03:07;17.90;90.60
10911;DHT22;5508;49.150;11.030;2022-09-11T11:09:56;17.70;88.40
10911;DHT22;5508;49.150;11.030;2022-09-11T11:16:34;17.70;87.60
10911;DHT22;5508;49.150;11.030;2022-09-11T11:20:00;17.90;90.30
10911;DHT22;5508;49.150;11.030;2022-09-11T11:42:38;18.90;83.70
10911;DHT22;5508;49.150;11.030;2022-09-11T11:45:44;18.70;86.70
10911;DHT22;5508;49.150;11.030;2022-09-11T11:48:53;18.60;85.90
10911;DHT22;5508;49.150;11.030;2022-09-11T11:58:51;19.20;82.80
10911;DHT22;5508;49.150;11.030;2022-09-11T12:05:23;19.20;78.90
10911;DHT22;5508;49.150;11.030;2022-09-11T12:08:25;18.80;80.60
10911;DHT22;5508;49.150;11.030;2022-09-11T12:11:30;18.10;85.90
10911;DHT22;5508;49.150;11.030;2022-09-11T12:14:32;17.90;86.70
10911;DHT22;5508;49.150;11.030;2022-09-11T12:17:37;17.70;88.70
10911;DHT22;5508;49.150;11.030;2022-09-11T12:20:41;17.60;90.70
10911;DHT22;5508;49.150;11.030;2022-09-11T12:30:28;17.40;91.50
10911;DHT22;5508;49.150;11.030;2022-09-11T12:39:51;18.30;90.50
10911;DHT22;5508;49.150;11.030;2022-09-11T12:53:22;18.40;88.50
10911;DHT22;5508;49.150;11.030;2022-09-11T12:56:25;18.50;84.90
10911;DHT22;5508;49.150;11.030;2022-09-11T12:59:51;18.80;84.40
10911;DHT22;5508;49.150;11.030;2022-09-11T13:02:54;19.40;83.10
10911;DHT22;5508;49.150;11.030;2022-09-11T13:09:00;19.30;77.60
10911;DHT22;5508;49.150;11.030;2022-09-11T13:15:41;19.10;80.00
10911;DHT22;5508;49.150;11.030;2022-09-11T13:18:42;19.00;81.70
10911;DHT22;5508;49.150;11.030;2022-09-11T13:21:43;19.20;79.20
10911;DHT22;5508;49.150;11.030;2022-09-11T13:24:49;19.40;76.90
10911;DHT22;5508;49.150;11.030;2022-09-11T13:27:54;19.70;79.00
10911;DHT22;5508;49.150;11.030;2022-09-11T13:30:58;19.70;75.10
10911;DHT22;5508;49.150;11.030;2022-09-11T13:34:04;19.50;77.10
10911;DHT22;5508;49.150;11.030;2022-09-11T13:37:14;19.40;78.20
10911;DHT22;5508;49.150;11.030;2022-09-11T13:40:30;19.40;78.30
10911;DHT22;5508;49.150;11.030;2022-09-11T13:43:59;19.30;76.60
10911;DHT22;5508;49.150;11.030;2022-09-11T13:47:00;19.10;79.00
10911;DHT22;5508;49.150;11.030;2022-09-11T13:50:05;19.20;79.60
10911;DHT22;5508;49.150;11.030;2022-09-11T13:53:09;19.50;78.40
10911;DHT22;5508;49.150;11.030;2022-09-11T14:02:50;18.90;77.50
10911;DHT22;5508;49.150;11.030;2022-09-11T14:05:54;18.70;77.00
10911;DHT22;5508;49.150;11.030;2022-09-11T14:08:55;18.60;81.10
10911;DHT22;5508;49.150;11.030;2022-09-11T14:12:01;18.30;81.60
10911;DHT22;5508;49.150;11.030;2022-09-11T14:15:09;18.20;81.30
10911;DHT22;5508;49.150;11.030;2022-09-11T14:24:32;17.80;83.60
10911;DHT22;5508;49.150;11.030;2022-09-11T14:27:37;17.70;85.70
10911;DHT22;5508;49.150;11.030;2022-09-11T14:30:41;17.70;85.00
10911;DHT22;5508;49.150;11.030;2022-09-11T14:33:41;17.80;84.80
10911;DHT22;5508;49.150;11.030;2022-09-11T14:40:16;17.80;85.00
10911;DHT22;5508;49.150;11.030;2022-09-11T14:43:25;17.80;87.50
10911;DHT22;5508;49.150;11.030;2022-09-11T14:46:29;18.00;89.00
10911;DHT22;5508;49.150;11.030;2022-09-11T14:49:30;18.10;86.40
10911;DHT22;5508;49.150;11.030;2022-09-11T14:52:30;18.20;83.80
10911;DHT22;5508;49.150;11.030;2022-09-11T14:55:31;18.30;84.10
10911;DHT22;5508;49.150;11.030;2022-09-11T14:58:32;18.40;83.00
10911;DHT22;5508;49.150;11.030;2022-09-11T15:01:33;18.50;81.80
10911;DHT22;5508;49.150;11.030;2022-09-11T15:04:34;18.70;82.30
10911;DHT22;5508;49.150;11.030;2022-09-11T15:07:36;18.70;79.70
10911;DHT22;5508;49.150;11.030;2022-09-11T15:10:36;18.80;78.60
10911;DHT22;5508;49.150;11.030;2022-09-11T15:13:37;18.60;80.60
10911;DHT22;5508;49.150;11.030;2022-09-11T15:16:37;18.50;80.30
10911;DHT22;5508;49.150;11.030;2022-09-11T15:19:38;18.50;81.00
10911;DHT22;5508;49.150;11.030;2022-09-11T15:22:39;18.50;80.30
10911;DHT22;5508;49.150;11.030;2022-09-11T15:25:39;18.40;80.50
10911;DHT22;5508;49.150;11.030;2022-09-11T15:28:40;18.40;80.60
10911;DHT22;5508;49.150;11.030;2022-09-11T15:31:40;18.40;81.10
10911;DHT22;5508;49.150;11.030;2022-09-11T15:34:41;18.30;82.40
10911;DHT22;5508;49.150;11.030;2022-09-11T15:37:46;18.20;80.50
10911;DHT22;5508;49.150;11.030;2022-09-11T15:40:50;18.20;80.10
10911;DHT22;5508;49.150;11.030;2022-09-11T15:43:52;18.20;78.80
10911;DHT22;5508;49.150;11.030;2022-09-11T15:46:54;18.20;82.00
10911;DHT22;5508;49.150;11.030;2022-09-11T15:49:56;18.10;81.30
10911;DHT22;5508;49.150;11.030;2022-09-11T15:52:57;18.10;82.70
10911;DHT22;5508;49.150;11.030;2022-09-11T15:59:06;18.20;83.70
10911;DHT22;5508;49.150;11.030;2022-09-11T16:02:09;18.20;86.80
10911;DHT22;5508;49.150;11.030;2022-09-11T16:05:09;18.00;87.50
10911;DHT22;5508;49.150;11.030;2022-09-11T16:08:10;17.90;82.60
10911;DHT22;5508;49.150;11.030;2022-09-11T16:11:12;17.90;81.80
10911;DHT22;5508;49.150;11.030;2022-09-11T16:14:20;17.80;80.50
10911;DHT22;5508;49.150;11.030;2022-09-11T16:17:21;17.70;84.50
10911;DHT22;5508;49.150;11.030;2022-09-11T16:20:26;17.60;81.40
10911;DHT22;5508;49.150;11.030;2022-09-11T16:23:27;17.50;83.40
10911;DHT22;5508;49.150;11.030;2022-09-11T16:26:27;17.60;82.60
10911;DHT22;5508;49.150;11.030;2022-09-11T16:29:29;17.50;82.50
10911;DHT22;5508;49.150;11.030;2022-09-11T16:32:29;17.40;85.10
10911;DHT22;5508;49.150;11.030;2022-09-11T16:35:37;17.30;85.70
10911;DHT22;5508;49.150;11.030;2022-09-11T16:38:39;17.30;83.80
10911;DHT22;5508;49.150;11.030;2022-09-11T16:41:40;17.20;88.10
10911;DHT22;5508;49.150;11.030;2022-09-11T16:44:41;17.20;84.20
10911;DHT22;5508;49.150;11.030;2022-09-11T16:47:41;17.10;86.80
10911;DHT22;5508;49.150;11.030;2022-09-11T16:50:42;17.10;88.20
10911;DHT22;5508;49.150;11.030;2022-09-11T16:53:42;17.10;86.90
10911;DHT22;5508;49.150;11.030;2022-09-11T16:56:44;17.00;89.70
10911;DHT22;5508;49.150;11.030;2022-09-11T16:59:44;16.80;91.50
10911;DHT22;5508;49.150;11.030;2022-09-11T17:02:45;16.70;92.30
10911;DHT22;5508;49.150;11.030;2022-09-11T17:05:50;16.50;92.00
10911;DHT22;5508;49.150;11.030;2022-09-11T17:08:53;16.50;93.30
10911;DHT22;5508;49.150;11.030;2022-09-11T17:11:53;16.40;95.40
10911;DHT22;5508;49.150;11.030;2022-09-11T17:14:54;16.20;95.60
10911;DHT22;5508;49.150;11.030;2022-09-11T17:17:54;16.10;96.90
10911;DHT22;5508;49.150;11.030;2022-09-11T17:21:01;16.00;98.00
10911;DHT22;5508;49.150;11.030;2022-09-11T17:24:04;15.80;99.70
10911;DHT22;5508;49.150;11.030;2022-09-11T17:27:05;15.70;99.90
10911;DHT22;5508;49.150;11.030;2022-09-11T17:30:06;15.60;99.90
10911;DHT22;5508;49.150;11.030;2022-09-11T17:33:07;15.50;99.90
10911;DHT22;5508;49.150;11.030;2022-09-11T17:36:09;15.40;99.90
10911;DHT22;5508;49.150;11.030;2022-09-11T17:39:09;15.30;99.90
10911;DHT22;5508;49.150;11.030;2022-09-11T17:42:10;15.20;99.90
10911;DHT22;5508;49.150;11.030;2022-09-11T17:45:10;15.20;99.90
10911;DHT22;5508;49.150;11.030;2022-09-11T17:48:11;15.10;99.90
10911;DHT22;5508;49.150;11.030;2022-09-11T17:51:15;14.90;99.90
10911;DHT22;5508;49.150;11.030;2022-09-11T17:54:15;14.80;99.90
10911;DHT22;5508;49.150;11.030;2022-09-11T17:57:16;14.70;99.90
10911;DHT22;5508;49.150;11.030;2022-09-11T18:00:16;14.60;99.90
10911;DHT22;5508;49.150;11.030;2022-09-11T18:03:17;14.50;99.90
10911;DHT22;5508;49.150;11.030;2022-09-11T18:06:33;14.40;99.90
10911;DHT22;5508;49.150;11.030;2022-09-11T18:09:35;14.30;99.90
10911;DHT22;5508;49.150;11.030;2022-09-11T18:12:36;14.20;99.90
10911;DHT22;5508;49.150;11.030;2022-09-11T18:15:36;14.20;99.90
10911;DHT22;5508;49.150;11.030;2022-09-11T18:18:37;14.00;99.90
10911;DHT22;5508;49.150;11.030;2022-09-11T18:21:41;13.90;99.90
10911;DHT22;5508;49.150;11.030;2022-09-11T18:24:41;13.80;99.90
10911;DHT22;5508;49.150;11.030;2022-09-11T18:27:42;13.80;99.90
10911;DHT22;5508;49.150;11.030;2022-09-11T18:30:43;13.80;99.90
10911;DHT22;5508;49.150;11.030;2022-09-11T18:33:43;13.80;99.90
10911;DHT22;5508;49.150;11.030;2022-09-11T18:36:44;13.80;99.90
10911;DHT22;5508;49.150;11.030;2022-09-11T18:39:44;13.80;99.90
10911;DHT22;5508;49.150;11.030;2022-09-11T18:42:47;13.90;99.90
10911;DHT22;5508;49.150;11.030;2022-09-11T18:45:48;13.80;99.90
10911;DHT22;5508;49.150;11.030;2022-09-11T18:48:48;13.70;99.90
10911;DHT22;5508;49.150;11.030;2022-09-11T18:51:52;13.60;99.90
10911;DHT22;5508;49.150;11.030;2022-09-11T18:54:53;13.50;99.90
10911;DHT22;5508;49.150;11.030;2022-09-11T18:57:53;13.50;99.90
10911;DHT22;5508;49.150;11.030;2022-09-11T19:00:55;13.40;99.90
10911;DHT22;5508;49.150;11.030;2022-09-11T19:03:56;13.30;99.90
10911;DHT22;5508;49.150;11.030;2022-09-11T19:06:56;13.30;99.90
10911;DHT22;5508;49.150;11.030;2022-09-11T19:09:57;13.20;99.90
10911;DHT22;5508;49.150;11.030;2022-09-11T19:12:58;13.20;99.90
10911;DHT22;5508;49.150;11.030;2022-09-11T19:15:59;13.10;99.90
10911;DHT22;5508;49.150;11.030;2022-09-11T19:19:00;13.20;99.90
10911;DHT22;5508;49.150;11.030;2022-09-11T19:22:02;13.10;99.90
10911;DHT22;5508;49.150;11.030;2022-09-11T19:25:02;13.10;99.90
10911;DHT22;5508;49.150;11.030;2022-09-11T19:28:03;13.10;99.90
10911;DHT22;5508;49.150;11.030;2022-09-11T19:31:04;13.10;99.90
10911;DHT22;5508;49.150;11.030;2022-09-11T19:34:06;13.10;99.90
10911;DHT22;5508;49.150;11.030;2022-09-11T19:37:08;13.10;99.90
10911;DHT22;5508;49.150;11.030;2022-09-11T19:40:10;13.00;99.90
10911;DHT22;5508;49.150;11.030;2022-09-11T19:43:11;13.00;99.90
10911;DHT22;5508;49.150;11.030;2022-09-11T19:46:17;13.00;99.90
10911;DHT22;5508;49.150;11.030;2022-09-11T19:49:18;12.90;99.90
10911;DHT22;5508;49.150;11.030;2022-09-11T19:52:19;12.80;99.90
10911;DHT22;5508;49.150;11.030;2022-09-11T19:55:19;12.80;99.90
10911;DHT22;5508;49.150;11.030;2022-09-11T19:58:20;12.60;99.90
10911;DHT22;5508;49.150;11.030;2022-09-11T20:01:22;12.60;99.90
10911;DHT22;5508;49.150;11.030;2022-09-11T20:04:23;12.60;99.90
10911;DHT22;5508;49.150;11.030;2022-09-11T20:07:24;12.60;99.90
10911;DHT22;5508;49.150;11.030;2022-09-11T20:10:24;12.50;99.90
10911;DHT22;5508;49.150;11.030;2022-09-11T20:13:27;12.40;99.90
10911;DHT22;5508;49.150;11.030;2022-09-11T20:16:28;12.40;99.90
10911;DHT22;5508;49.150;11.030;2022-09-11T20:19:29;12.20;99.90
10911;DHT22;5508;49.150;11.030;2022-09-11T20:22:29;12.20;99.90
10911;DHT22;5508;49.150;11.030;2022-09-11T20:25:30;12.20;99.90
10911;DHT22;5508;49.150;11.030;2022-09-11T20:28:31;12.20;99.90
10911;DHT22;5508;49.150;11.030;2022-09-11T20:31:34;12.10;99.90
10911;DHT22;5508;49.150;11.030;2022-09-11T20:34:34;12.10;99.90
10911;DHT22;5508;49.150;11.030;2022-09-11T20:37:35;12.20;99.90
10911;DHT22;5508;49.150;11.030;2022-09-11T20:40:36;12.10;99.90
10911;DHT22;5508;49.150;11.030;2022-09-11T20:43:37;12.10;99.90
10911;DHT22;5508;49.150;11.030;2022-09-11T20:46:38;12.00;99.90
10911;DHT22;5508;49.150;11.030;2022-09-11T20:49:39;12.00;99.90
10911;DHT22;5508;49.150;11.030;2022-09-11T20:52:44;12.00;99.90
10911;DHT22;5508;49.150;11.030;2022-09-11T20:55:45;11.90;99.90
10911;DHT22;5508;49.150;11.030;2022-09-11T20:58:46;11.90;99.90
10911;DHT22;5508;49.150;11.030;2022-09-11T21:01:47;11.90;99.90
10911;DHT22;5508;49.150;11.030;2022-09-11T21:04:48;11.90;99.90
10911;DHT22;5508;49.150;11.030;2022-09-11T21:07:49;11.90;99.90
10911;DHT22;5508;49.150;11.030;2022-09-11T21:10:49;11.80;99.90
10911;DHT22;5508;49.150;11.030;2022-09-11T21:13:50;11.80;99.90
10911;DHT22;5508;49.150;11.030;2022-09-11T21:16:51;11.90;99.90
10911;DHT22;5508;49.150;11.030;2022-09-11T21:19:52;11.80;99.90
10911;DHT22;5508;49.150;11.030;2022-09-11T21:22:52;11.80;99.90
10911;DHT22;5508;49.150;11.030;2022-09-11T21:25:53;11.70;99.90
10911;DHT22;5508;49.150;11.030;2022-09-11T21:28:55;11.50;99.90
10911;DHT22;5508;49.150;11.030;2022-09-11T21:31:56;11.60;99.90
10911;DHT22;5508;49.150;11.030;2022-09-11T21:34:57;11.50;99.90
10911;DHT22;5508;49.150;11.030;2022-09-11T21:37:57;11.50;99.90
10911;DHT22;5508;49.150;11.030;2022-09-11T21:41:00;11.40;99.90